sensor_id;sensor_type;location;lat;lon;timestamp;P1;durP1;ratioP1;P2;durP2;ratioP2
24897;SDS011;12957;49.434;8.684;2022-12-18T00:01:48;61.30;;;20.93;;
24897;SDS011;12957;49.434;8.684;2022-12-18T00:04:21;69.80;;;20.50;;
24897;SDS011;12957;49.434;8.684;2022-12-18T00:06:47;63.50;;;20.30;;
24897;SDS011;12957;49.434;8.684;2022-12-18T00:09:12;58.47;;;19.37;;
24897;SDS011;12957;49.434;8.684;2022-12-18T00:11:38;67.93;;;19.67;;
24897;SDS011;12957;49.434;8.684;2022-12-18T00:14:04;62.33;;;21.50;;
24897;SDS011;12957;49.434;8.684;2022-12-18T00:16:29;63.80;;;18.67;;
24897;SDS011;12957;49.434;8.684;2022-12-18T00:19:00;60.80;;;20.50;;
24897;SDS011;12957;49.434;8.684;2022-12-18T00:21:27;71.17;;;20.53;;
24897;SDS011;12957;49.434;8.684;2022-12-18T00:23:52;65.97;;;20.07;;
24897;SDS011;12957;49.434;8.684;2022-12-18T00:26:25;74.73;;;21.07;;
24897;SDS011;12957;49.434;8.684;2022-12-18T00:28:55;76.33;;;22.90;;
24897;SDS011;12957;49.434;8.684;2022-12-18T00:31:23;66.10;;;20.20;;
24897;SDS011;12957;49.434;8.684;2022-12-18T00:33:49;76.57;;;20.93;;
24897;SDS011;12957;49.434;8.684;2022-12-18T00:36:22;76.87;;;23.20;;
24897;SDS011;12957;49.434;8.684;2022-12-18T00:38:49;77.43;;;20.27;;
24897;SDS011;12957;49.434;8.684;2022-12-18T00:41:15;76.93;;;22.10;;
24897;SDS011;12957;49.434;8.684;2022-12-18T00:44:02;64.40;;;20.63;;
24897;SDS011;12957;49.434;8.684;2022-12-18T00:46:28;68.67;;;20.33;;
24897;SDS011;12957;49.434;8.684;2022-12-18T00:48:53;60.70;;;19.83;;
24897;SDS011;12957;49.434;8.684;2022-12-18T00:51:19;67.73;;;20.27;;
24897;SDS011;12957;49.434;8.684;2022-12-18T00:53:44;78.57;;;23.67;;
24897;SDS011;12957;49.434;8.684;2022-12-18T00:56:10;64.90;;;20.33;;
24897;SDS011;12957;49.434;8.684;2022-12-18T00:58:35;83.43;;;22.97;;
24897;SDS011;12957;49.434;8.684;2022-12-18T01:01:01;66.63;;;23.50;;
24897;SDS011;12957;49.434;8.684;2022-12-18T01:03:31;66.50;;;19.90;;
24897;SDS011;12957;49.434;8.684;2022-12-18T01:05:56;74.80;;;21.27;;
24897;SDS011;12957;49.434;8.684;2022-12-18T01:08:22;59.90;;;21.20;;
24897;SDS011;12957;49.434;8.684;2022-12-18T01:10:48;69.93;;;21.27;;
24897;SDS011;12957;49.434;8.684;2022-12-18T01:13:13;71.77;;;21.77;;
24897;SDS011;12957;49.434;8.684;2022-12-18T01:15:39;71.27;;;22.07;;
24897;SDS011;12957;49.434;8.684;2022-12-18T01:18:05;74.33;;;21.13;;
24897;SDS011;12957;49.434;8.684;2022-12-18T01:20:31;64.83;;;21.77;;
24897;SDS011;12957;49.434;8.684;2022-12-18T01:22:56;67.47;;;21.07;;
24897;SDS011;12957;49.434;8.684;2022-12-18T01:25:22;70.40;;;21.17;;
24897;SDS011;12957;49.434;8.684;2022-12-18T01:27:47;70.67;;;22.17;;
24897;SDS011;12957;49.434;8.684;2022-12-18T01:30:13;60.33;;;20.63;;
24897;SDS011;12957;49.434;8.684;2022-12-18T01:32:38;66.70;;;21.23;;
24897;SDS011;12957;49.434;8.684;2022-12-18T01:35:04;64.10;;;20.53;;
24897;SDS011;12957;49.434;8.684;2022-12-18T01:37:30;62.23;;;20.97;;
24897;SDS011;12957;49.434;8.684;2022-12-18T01:39:55;69.30;;;21.13;;
24897;SDS011;12957;49.434;8.684;2022-12-18T01:42:21;66.50;;;20.97;;
24897;SDS011;12957;49.434;8.684;2022-12-18T01:49:57;62.43;;;20.73;;
24897;SDS011;12957;49.434;8.684;2022-12-18T01:52:26;67.97;;;21.33;;
24897;SDS011;12957;49.434;8.684;2022-12-18T01:54:53;65.70;;;20.07;;
24897;SDS011;12957;49.434;8.684;2022-12-18T01:57:19;64.00;;;19.13;;
24897;SDS011;12957;49.434;8.684;2022-12-18T01:59:45;64.83;;;21.00;;
24897;SDS011;12957;49.434;8.684;2022-12-18T02:02:13;62.90;;;19.90;;
24897;SDS011;12957;49.434;8.684;2022-12-18T02:04:40;67.57;;;20.50;;
24897;SDS011;12957;49.434;8.684;2022-12-18T02:09:55;55.80;;;18.80;;
24897;SDS011;12957;49.434;8.684;2022-12-18T02:12:25;63.93;;;20.10;;
24897;SDS011;12957;49.434;8.684;2022-12-18T02:15:06;63.53;;;20.03;;
24897;SDS011;12957;49.434;8.684;2022-12-18T02:20:12;55.43;;;19.90;;
24897;SDS011;12957;49.434;8.684;2022-12-18T02:28:16;59.07;;;19.03;;
24897;SDS011;12957;49.434;8.684;2022-12-18T02:30:45;63.87;;;20.20;;
24897;SDS011;12957;49.434;8.684;2022-12-18T02:33:13;66.10;;;20.10;;
24897;SDS011;12957;49.434;8.684;2022-12-18T02:35:38;70.23;;;21.30;;
24897;SDS011;12957;49.434;8.684;2022-12-18T02:38:05;67.43;;;20.37;;
24897;SDS011;12957;49.434;8.684;2022-12-18T02:40:31;65.00;;;20.40;;
24897;SDS011;12957;49.434;8.684;2022-12-18T02:43:07;66.53;;;21.40;;
24897;SDS011;12957;49.434;8.684;2022-12-18T02:45:35;64.43;;;21.17;;
24897;SDS011;12957;49.434;8.684;2022-12-18T02:48:01;68.03;;;20.73;;
24897;SDS011;12957;49.434;8.684;2022-12-18T02:50:30;60.90;;;20.27;;
24897;SDS011;12957;49.434;8.684;2022-12-18T03:01:01;57.27;;;20.00;;
24897;SDS011;12957;49.434;8.684;2022-12-18T03:03:38;58.47;;;19.33;;
24897;SDS011;12957;49.434;8.684;2022-12-18T03:06:11;58.07;;;19.43;;
24897;SDS011;12957;49.434;8.684;2022-12-18T03:08:44;59.97;;;18.43;;
24897;SDS011;12957;49.434;8.684;2022-12-18T03:11:12;63.63;;;19.67;;
24897;SDS011;12957;49.434;8.684;2022-12-18T03:13:49;71.20;;;19.60;;
24897;SDS011;12957;49.434;8.684;2022-12-18T03:16:22;56.13;;;18.83;;
24897;SDS011;12957;49.434;8.684;2022-12-18T03:18:57;66.00;;;20.73;;
24897;SDS011;12957;49.434;8.684;2022-12-18T03:21:28;59.57;;;19.27;;
24897;SDS011;12957;49.434;8.684;2022-12-18T03:24:03;58.73;;;18.63;;
24897;SDS011;12957;49.434;8.684;2022-12-18T03:26:31;72.13;;;21.10;;
24897;SDS011;12957;49.434;8.684;2022-12-18T03:28:59;62.83;;;19.57;;
24897;SDS011;12957;49.434;8.684;2022-12-18T03:31:27;59.43;;;19.63;;
24897;SDS011;12957;49.434;8.684;2022-12-18T03:33:55;56.80;;;19.07;;
24897;SDS011;12957;49.434;8.684;2022-12-18T03:36:22;55.83;;;19.50;;
24897;SDS011;12957;49.434;8.684;2022-12-18T03:38:48;61.97;;;18.83;;
24897;SDS011;12957;49.434;8.684;2022-12-18T03:41:33;56.43;;;18.57;;
24897;SDS011;12957;49.434;8.684;2022-12-18T03:49:14;65.73;;;18.30;;
24897;SDS011;12957;49.434;8.684;2022-12-18T03:51:50;58.13;;;19.60;;
24897;SDS011;12957;49.434;8.684;2022-12-18T03:54:18;65.43;;;19.77;;
24897;SDS011;12957;49.434;8.684;2022-12-18T03:56:45;57.40;;;18.27;;
24897;SDS011;12957;49.434;8.684;2022-12-18T03:59:13;54.53;;;18.87;;
24897;SDS011;12957;49.434;8.684;2022-12-18T04:01:43;51.57;;;18.73;;
24897;SDS011;12957;49.434;8.684;2022-12-18T04:04:11;61.70;;;18.93;;
24897;SDS011;12957;49.434;8.684;2022-12-18T04:06:37;56.53;;;18.10;;
24897;SDS011;12957;49.434;8.684;2022-12-18T04:09:04;59.27;;;17.63;;
24897;SDS011;12957;49.434;8.684;2022-12-18T04:11:29;60.93;;;19.57;;
24897;SDS011;12957;49.434;8.684;2022-12-18T04:13:55;64.43;;;19.40;;
24897;SDS011;12957;49.434;8.684;2022-12-18T04:16:22;63.10;;;19.43;;
24897;SDS011;12957;49.434;8.684;2022-12-18T04:18:48;56.10;;;18.10;;
24897;SDS011;12957;49.434;8.684;2022-12-18T04:21:14;55.57;;;19.20;;
24897;SDS011;12957;49.434;8.684;2022-12-18T04:23:39;66.17;;;18.53;;
24897;SDS011;12957;49.434;8.684;2022-12-18T04:26:05;60.67;;;18.50;;
24897;SDS011;12957;49.434;8.684;2022-12-18T04:28:30;59.37;;;18.97;;
24897;SDS011;12957;49.434;8.684;2022-12-18T04:30:56;59.50;;;18.20;;
24897;SDS011;12957;49.434;8.684;2022-12-18T04:33:21;66.63;;;19.50;;
24897;SDS011;12957;49.434;8.684;2022-12-18T04:35:47;61.60;;;18.93;;
24897;SDS011;12957;49.434;8.684;2022-12-18T04:38:12;53.87;;;18.60;;
24897;SDS011;12957;49.434;8.684;2022-12-18T04:40:38;55.07;;;17.67;;
24897;SDS011;12957;49.434;8.684;2022-12-18T04:43:04;62.03;;;19.33;;
24897;SDS011;12957;49.434;8.684;2022-12-18T04:45:30;56.00;;;18.30;;
24897;SDS011;12957;49.434;8.684;2022-12-18T04:47:59;52.60;;;17.57;;
24897;SDS011;12957;49.434;8.684;2022-12-18T04:50:25;56.67;;;18.23;;
24897;SDS011;12957;49.434;8.684;2022-12-18T04:52:50;55.00;;;17.50;;
24897;SDS011;12957;49.434;8.684;2022-12-18T04:55:16;55.17;;;19.67;;
24897;SDS011;12957;49.434;8.684;2022-12-18T04:57:41;51.03;;;16.30;;
24897;SDS011;12957;49.434;8.684;2022-12-18T05:00:07;61.70;;;17.63;;
24897;SDS011;12957;49.434;8.684;2022-12-18T05:02:33;51.10;;;18.10;;
24897;SDS011;12957;49.434;8.684;2022-12-18T05:04:58;55.17;;;17.77;;
24897;SDS011;12957;49.434;8.684;2022-12-18T05:07:24;61.63;;;17.83;;
24897;SDS011;12957;49.434;8.684;2022-12-18T05:09:49;54.47;;;16.40;;
24897;SDS011;12957;49.434;8.684;2022-12-18T05:12:15;54.53;;;17.83;;
24897;SDS011;12957;49.434;8.684;2022-12-18T05:14:40;51.00;;;17.03;;
24897;SDS011;12957;49.434;8.684;2022-12-18T05:17:06;59.30;;;18.53;;
24897;SDS011;12957;49.434;8.684;2022-12-18T05:19:31;58.10;;;17.47;;
24897;SDS011;12957;49.434;8.684;2022-12-18T05:21:57;58.97;;;18.90;;
24897;SDS011;12957;49.434;8.684;2022-12-18T05:24:23;67.63;;;19.83;;
24897;SDS011;12957;49.434;8.684;2022-12-18T05:26:48;65.53;;;18.83;;
24897;SDS011;12957;49.434;8.684;2022-12-18T05:29:14;64.80;;;18.90;;
24897;SDS011;12957;49.434;8.684;2022-12-18T05:31:39;69.47;;;19.47;;
24897;SDS011;12957;49.434;8.684;2022-12-18T05:34:05;57.73;;;19.43;;
24897;SDS011;12957;49.434;8.684;2022-12-18T05:36:30;56.50;;;17.73;;
24897;SDS011;12957;49.434;8.684;2022-12-18T05:38:56;57.03;;;19.63;;
24897;SDS011;12957;49.434;8.684;2022-12-18T05:41:21;65.20;;;19.37;;
24897;SDS011;12957;49.434;8.684;2022-12-18T05:43:47;56.70;;;18.47;;
24897;SDS011;12957;49.434;8.684;2022-12-18T05:46:13;57.77;;;18.83;;
24897;SDS011;12957;49.434;8.684;2022-12-18T05:48:40;59.37;;;18.03;;
24897;SDS011;12957;49.434;8.684;2022-12-18T05:51:10;65.97;;;19.80;;
24897;SDS011;12957;49.434;8.684;2022-12-18T05:53:37;56.93;;;17.90;;
24897;SDS011;12957;49.434;8.684;2022-12-18T05:56:03;61.50;;;18.93;;
24897;SDS011;12957;49.434;8.684;2022-12-18T05:58:30;56.77;;;18.00;;
24897;SDS011;12957;49.434;8.684;2022-12-18T06:00:56;60.07;;;18.83;;
24897;SDS011;12957;49.434;8.684;2022-12-18T06:03:22;58.23;;;17.40;;
24897;SDS011;12957;49.434;8.684;2022-12-18T06:05:47;54.10;;;17.23;;
24897;SDS011;12957;49.434;8.684;2022-12-18T06:08:13;65.07;;;18.87;;
24897;SDS011;12957;49.434;8.684;2022-12-18T06:10:39;55.03;;;17.67;;
24897;SDS011;12957;49.434;8.684;2022-12-18T06:13:05;59.93;;;17.87;;
24897;SDS011;12957;49.434;8.684;2022-12-18T06:15:31;60.43;;;18.77;;
24897;SDS011;12957;49.434;8.684;2022-12-18T06:17:56;58.10;;;18.20;;
24897;SDS011;12957;49.434;8.684;2022-12-18T06:20:22;70.33;;;19.13;;
24897;SDS011;12957;49.434;8.684;2022-12-18T06:22:47;54.10;;;17.33;;
24897;SDS011;12957;49.434;8.684;2022-12-18T06:25:13;53.37;;;17.57;;
24897;SDS011;12957;49.434;8.684;2022-12-18T06:27:39;63.63;;;17.53;;
24897;SDS011;12957;49.434;8.684;2022-12-18T06:30:04;57.50;;;18.40;;
24897;SDS011;12957;49.434;8.684;2022-12-18T06:32:30;63.73;;;18.23;;
24897;SDS011;12957;49.434;8.684;2022-12-18T06:34:56;60.40;;;17.57;;
24897;SDS011;12957;49.434;8.684;2022-12-18T06:37:22;56.97;;;18.10;;
24897;SDS011;12957;49.434;8.684;2022-12-18T06:39:51;59.40;;;18.83;;
24897;SDS011;12957;49.434;8.684;2022-12-18T06:42:17;65.23;;;18.30;;
24897;SDS011;12957;49.434;8.684;2022-12-18T06:44:42;58.77;;;18.70;;
24897;SDS011;12957;49.434;8.684;2022-12-18T06:47:07;65.97;;;18.60;;
24897;SDS011;12957;49.434;8.684;2022-12-18T06:49:33;62.97;;;18.77;;
24897;SDS011;12957;49.434;8.684;2022-12-18T06:51:58;58.47;;;17.53;;
24897;SDS011;12957;49.434;8.684;2022-12-18T06:54:24;52.50;;;17.00;;
24897;SDS011;12957;49.434;8.684;2022-12-18T06:56:49;59.37;;;17.77;;
24897;SDS011;12957;49.434;8.684;2022-12-18T06:59:15;59.67;;;18.67;;
24897;SDS011;12957;49.434;8.684;2022-12-18T07:01:40;73.93;;;20.63;;
24897;SDS011;12957;49.434;8.684;2022-12-18T07:04:06;61.10;;;19.07;;
24897;SDS011;12957;49.434;8.684;2022-12-18T07:06:31;61.13;;;18.70;;
24897;SDS011;12957;49.434;8.684;2022-12-18T07:08:57;60.67;;;18.13;;
24897;SDS011;12957;49.434;8.684;2022-12-18T07:11:23;58.03;;;19.13;;
24897;SDS011;12957;49.434;8.684;2022-12-18T07:13:48;59.60;;;18.03;;
24897;SDS011;12957;49.434;8.684;2022-12-18T07:16:15;60.60;;;18.10;;
24897;SDS011;12957;49.434;8.684;2022-12-18T07:18:41;59.07;;;17.83;;
24897;SDS011;12957;49.434;8.684;2022-12-18T07:21:08;63.90;;;19.20;;
24897;SDS011;12957;49.434;8.684;2022-12-18T07:23:34;68.23;;;18.90;;
24897;SDS011;12957;49.434;8.684;2022-12-18T07:26:08;60.03;;;18.40;;
24897;SDS011;12957;49.434;8.684;2022-12-18T07:28:37;63.83;;;19.00;;
24897;SDS011;12957;49.434;8.684;2022-12-18T07:31:03;57.63;;;17.60;;
24897;SDS011;12957;49.434;8.684;2022-12-18T07:33:29;64.40;;;17.90;;
24897;SDS011;12957;49.434;8.684;2022-12-18T07:35:55;64.73;;;18.83;;
24897;SDS011;12957;49.434;8.684;2022-12-18T07:38:21;59.17;;;18.10;;
24897;SDS011;12957;49.434;8.684;2022-12-18T07:40:47;61.87;;;18.00;;
24897;SDS011;12957;49.434;8.684;2022-12-18T07:43:12;67.83;;;18.37;;
24897;SDS011;12957;49.434;8.684;2022-12-18T07:45:38;61.20;;;18.43;;
24897;SDS011;12957;49.434;8.684;2022-12-18T07:48:03;63.23;;;19.87;;
24897;SDS011;12957;49.434;8.684;2022-12-18T07:50:29;58.63;;;18.37;;
24897;SDS011;12957;49.434;8.684;2022-12-18T07:52:54;64.37;;;18.60;;
24897;SDS011;12957;49.434;8.684;2022-12-18T07:55:20;56.20;;;18.80;;
24897;SDS011;12957;49.434;8.684;2022-12-18T07:57:45;64.03;;;19.53;;
24897;SDS011;12957;49.434;8.684;2022-12-18T08:00:11;70.53;;;19.17;;
24897;SDS011;12957;49.434;8.684;2022-12-18T08:02:37;62.03;;;18.70;;
24897;SDS011;12957;49.434;8.684;2022-12-18T08:05:02;57.43;;;18.33;;
24897;SDS011;12957;49.434;8.684;2022-12-18T08:07:28;72.40;;;20.90;;
24897;SDS011;12957;49.434;8.684;2022-12-18T08:09:53;60.47;;;18.80;;
24897;SDS011;12957;49.434;8.684;2022-12-18T08:12:19;62.23;;;19.93;;
24897;SDS011;12957;49.434;8.684;2022-12-18T08:14:47;60.93;;;19.43;;
24897;SDS011;12957;49.434;8.684;2022-12-18T08:17:18;58.57;;;19.30;;
24897;SDS011;12957;49.434;8.684;2022-12-18T08:19:50;60.10;;;18.27;;
24897;SDS011;12957;49.434;8.684;2022-12-18T08:22:15;53.57;;;18.93;;
24897;SDS011;12957;49.434;8.684;2022-12-18T08:24:41;59.97;;;18.90;;
24897;SDS011;12957;49.434;8.684;2022-12-18T08:27:06;62.03;;;18.93;;
24897;SDS011;12957;49.434;8.684;2022-12-18T08:29:32;60.73;;;18.87;;
24897;SDS011;12957;49.434;8.684;2022-12-18T08:31:58;64.50;;;19.13;;
24897;SDS011;12957;49.434;8.684;2022-12-18T08:34:24;66.57;;;20.03;;
24897;SDS011;12957;49.434;8.684;2022-12-18T08:36:49;64.03;;;18.73;;
24897;SDS011;12957;49.434;8.684;2022-12-18T08:39:15;58.87;;;19.60;;
24897;SDS011;12957;49.434;8.684;2022-12-18T08:41:40;58.40;;;20.10;;
24897;SDS011;12957;49.434;8.684;2022-12-18T08:44:09;62.67;;;19.73;;
24897;SDS011;12957;49.434;8.684;2022-12-18T08:46:53;65.67;;;19.23;;
24897;SDS011;12957;49.434;8.684;2022-12-18T08:49:18;67.97;;;20.33;;
24897;SDS011;12957;49.434;8.684;2022-12-18T08:51:44;52.30;;;18.63;;
24897;SDS011;12957;49.434;8.684;2022-12-18T08:54:12;63.80;;;19.43;;
24897;SDS011;12957;49.434;8.684;2022-12-18T08:56:38;62.00;;;19.67;;
24897;SDS011;12957;49.434;8.684;2022-12-18T08:59:04;59.00;;;20.57;;
24897;SDS011;12957;49.434;8.684;2022-12-18T09:01:29;58.77;;;19.33;;
24897;SDS011;12957;49.434;8.684;2022-12-18T09:03:55;61.50;;;19.43;;
24897;SDS011;12957;49.434;8.684;2022-12-18T09:06:21;69.73;;;21.63;;
24897;SDS011;12957;49.434;8.684;2022-12-18T09:08:47;64.23;;;21.50;;
24897;SDS011;12957;49.434;8.684;2022-12-18T09:11:14;57.53;;;20.10;;
24897;SDS011;12957;49.434;8.684;2022-12-18T09:13:46;61.73;;;21.00;;
24897;SDS011;12957;49.434;8.684;2022-12-18T09:16:11;59.37;;;19.93;;
24897;SDS011;12957;49.434;8.684;2022-12-18T09:18:37;58.07;;;20.17;;
24897;SDS011;12957;49.434;8.684;2022-12-18T09:21:13;57.47;;;19.43;;
24897;SDS011;12957;49.434;8.684;2022-12-18T09:23:40;58.43;;;20.37;;
24897;SDS011;12957;49.434;8.684;2022-12-18T09:26:05;55.00;;;19.53;;
24897;SDS011;12957;49.434;8.684;2022-12-18T09:28:31;56.67;;;20.13;;
24897;SDS011;12957;49.434;8.684;2022-12-18T09:30:56;47.57;;;16.97;;
24897;SDS011;12957;49.434;8.684;2022-12-18T09:33:22;49.57;;;17.43;;
24897;SDS011;12957;49.434;8.684;2022-12-18T09:35:47;45.70;;;16.47;;
24897;SDS011;12957;49.434;8.684;2022-12-18T09:38:14;46.30;;;17.30;;
24897;SDS011;12957;49.434;8.684;2022-12-18T09:40:45;48.20;;;19.07;;
24897;SDS011;12957;49.434;8.684;2022-12-18T09:43:16;51.63;;;20.17;;
24897;SDS011;12957;49.434;8.684;2022-12-18T09:45:45;52.27;;;19.50;;
24897;SDS011;12957;49.434;8.684;2022-12-18T09:48:18;54.13;;;20.47;;
24897;SDS011;12957;49.434;8.684;2022-12-18T09:50:46;55.63;;;20.97;;
24897;SDS011;12957;49.434;8.684;2022-12-18T09:53:15;54.03;;;20.67;;
24897;SDS011;12957;49.434;8.684;2022-12-18T09:55:45;54.80;;;19.40;;
24897;SDS011;12957;49.434;8.684;2022-12-18T09:58:22;47.10;;;18.50;;
24897;SDS011;12957;49.434;8.684;2022-12-18T10:00:51;49.53;;;19.17;;
24897;SDS011;12957;49.434;8.684;2022-12-18T10:03:17;43.90;;;17.23;;
24897;SDS011;12957;49.434;8.684;2022-12-18T10:05:50;54.77;;;19.57;;
24897;SDS011;12957;49.434;8.684;2022-12-18T10:08:27;49.80;;;19.17;;
24897;SDS011;12957;49.434;8.684;2022-12-18T10:20:01;49.00;;;18.13;;
24897;SDS011;12957;49.434;8.684;2022-12-18T10:25:31;50.77;;;18.60;;
24897;SDS011;12957;49.434;8.684;2022-12-18T10:28:07;51.23;;;19.30;;
24897;SDS011;12957;49.434;8.684;2022-12-18T10:30:41;49.77;;;19.40;;
24897;SDS011;12957;49.434;8.684;2022-12-18T10:33:10;48.87;;;19.13;;
24897;SDS011;12957;49.434;8.684;2022-12-18T10:35:37;48.07;;;18.87;;
24897;SDS011;12957;49.434;8.684;2022-12-18T10:43:15;53.87;;;20.27;;
24897;SDS011;12957;49.434;8.684;2022-12-18T10:45:41;40.00;;;16.33;;
24897;SDS011;12957;49.434;8.684;2022-12-18T10:48:22;45.40;;;17.30;;
24897;SDS011;12957;49.434;8.684;2022-12-18T10:50:48;45.13;;;16.70;;
24897;SDS011;12957;49.434;8.684;2022-12-18T10:53:25;40.23;;;14.37;;
24897;SDS011;12957;49.434;8.684;2022-12-18T10:55:52;46.47;;;15.70;;
24897;SDS011;12957;49.434;8.684;2022-12-18T10:58:21;40.53;;;14.57;;
24897;SDS011;12957;49.434;8.684;2022-12-18T11:06:09;38.80;;;14.73;;
24897;SDS011;12957;49.434;8.684;2022-12-18T11:08:39;41.47;;;15.17;;
24897;SDS011;12957;49.434;8.684;2022-12-18T11:11:24;38.03;;;15.43;;
24897;SDS011;12957;49.434;8.684;2022-12-18T11:14:06;43.77;;;16.60;;
24897;SDS011;12957;49.434;8.684;2022-12-18T11:16:45;38.47;;;15.13;;
24897;SDS011;12957;49.434;8.684;2022-12-18T11:19:19;45.77;;;17.17;;
24897;SDS011;12957;49.434;8.684;2022-12-18T11:21:59;41.40;;;16.17;;
24897;SDS011;12957;49.434;8.684;2022-12-18T11:24:27;37.87;;;14.43;;
24897;SDS011;12957;49.434;8.684;2022-12-18T11:27:06;50.00;;;18.77;;
24897;SDS011;12957;49.434;8.684;2022-12-18T11:29:41;47.37;;;18.17;;
24897;SDS011;12957;49.434;8.684;2022-12-18T11:32:21;46.83;;;16.63;;
24897;SDS011;12957;49.434;8.684;2022-12-18T11:35:10;39.47;;;16.00;;
24897;SDS011;12957;49.434;8.684;2022-12-18T11:37:37;46.97;;;17.93;;
24897;SDS011;12957;49.434;8.684;2022-12-18T11:40:07;47.27;;;19.23;;
24897;SDS011;12957;49.434;8.684;2022-12-18T11:42:42;53.63;;;18.13;;
24897;SDS011;12957;49.434;8.684;2022-12-18T11:47:43;59.80;;;21.33;;
24897;SDS011;12957;49.434;8.684;2022-12-18T11:50:28;67.93;;;23.17;;
24897;SDS011;12957;49.434;8.684;2022-12-18T11:52:55;66.53;;;21.00;;
24897;SDS011;12957;49.434;8.684;2022-12-18T11:58:51;47.00;;;17.60;;
24897;SDS011;12957;49.434;8.684;2022-12-18T12:01:40;57.60;;;19.87;;
24897;SDS011;12957;49.434;8.684;2022-12-18T12:07:03;47.17;;;17.13;;
24897;SDS011;12957;49.434;8.684;2022-12-18T12:12:28;43.20;;;15.67;;
24897;SDS011;12957;49.434;8.684;2022-12-18T12:15:20;42.53;;;14.47;;
24897;SDS011;12957;49.434;8.684;2022-12-18T12:20:57;38.70;;;14.73;;
24897;SDS011;12957;49.434;8.684;2022-12-18T12:23:38;41.47;;;14.80;;
24897;SDS011;12957;49.434;8.684;2022-12-18T12:28:59;42.70;;;14.67;;
24897;SDS011;12957;49.434;8.684;2022-12-18T12:31:48;39.97;;;15.57;;
24897;SDS011;12957;49.434;8.684;2022-12-18T12:39:54;37.50;;;14.70;;
24897;SDS011;12957;49.434;8.684;2022-12-18T12:42:23;36.93;;;14.77;;
24897;SDS011;12957;49.434;8.684;2022-12-18T12:45:15;42.80;;;14.67;;
24897;SDS011;12957;49.434;8.684;2022-12-18T12:47:46;39.43;;;16.50;;
24897;SDS011;12957;49.434;8.684;2022-12-18T12:50:14;38.60;;;15.40;;
24897;SDS011;12957;49.434;8.684;2022-12-18T12:53:00;40.03;;;14.27;;
24897;SDS011;12957;49.434;8.684;2022-12-18T12:55:27;39.63;;;16.17;;
24897;SDS011;12957;49.434;8.684;2022-12-18T12:57:58;43.37;;;15.73;;
24897;SDS011;12957;49.434;8.684;2022-12-18T13:00:45;44.50;;;16.40;;
24897;SDS011;12957;49.434;8.684;2022-12-18T13:06:13;49.80;;;16.40;;
24897;SDS011;12957;49.434;8.684;2022-12-18T13:08:54;38.67;;;15.93;;
24897;SDS011;12957;49.434;8.684;2022-12-18T13:11:42;43.27;;;15.83;;
24897;SDS011;12957;49.434;8.684;2022-12-18T13:16:51;41.00;;;15.73;;
24897;SDS011;12957;49.434;8.684;2022-12-18T13:19:21;45.83;;;15.07;;
24897;SDS011;12957;49.434;8.684;2022-12-18T13:21:52;42.97;;;15.47;;
24897;SDS011;12957;49.434;8.684;2022-12-18T13:26:51;46.43;;;16.43;;
24897;SDS011;12957;49.434;8.684;2022-12-18T13:32:10;42.03;;;15.87;;
24897;SDS011;12957;49.434;8.684;2022-12-18T13:34:45;41.43;;;15.17;;
24897;SDS011;12957;49.434;8.684;2022-12-18T13:39:58;41.87;;;13.70;;
24897;SDS011;12957;49.434;8.684;2022-12-18T13:48:15;40.47;;;15.83;;
24897;SDS011;12957;49.434;8.684;2022-12-18T13:50:55;49.13;;;17.23;;
24897;SDS011;12957;49.434;8.684;2022-12-18T13:53:28;47.10;;;17.93;;
24897;SDS011;12957;49.434;8.684;2022-12-18T13:56:17;44.73;;;15.80;;
24897;SDS011;12957;49.434;8.684;2022-12-18T13:59:03;38.47;;;14.50;;
24897;SDS011;12957;49.434;8.684;2022-12-18T14:01:30;40.23;;;14.93;;
24897;SDS011;12957;49.434;8.684;2022-12-18T14:04:16;50.53;;;16.20;;
24897;SDS011;12957;49.434;8.684;2022-12-18T14:06:44;37.80;;;14.33;;
24897;SDS011;12957;49.434;8.684;2022-12-18T14:09:15;45.30;;;15.67;;
24897;SDS011;12957;49.434;8.684;2022-12-18T14:11:45;38.80;;;15.20;;
24897;SDS011;12957;49.434;8.684;2022-12-18T14:14:13;47.60;;;17.07;;
24897;SDS011;12957;49.434;8.684;2022-12-18T14:16:40;50.63;;;18.57;;
24897;SDS011;12957;49.434;8.684;2022-12-18T14:19:08;57.10;;;21.87;;
24897;SDS011;12957;49.434;8.684;2022-12-18T14:21:38;57.40;;;22.37;;
24897;SDS011;12957;49.434;8.684;2022-12-18T14:24:14;61.57;;;23.40;;
24897;SDS011;12957;49.434;8.684;2022-12-18T14:26:41;70.60;;;23.30;;
24897;SDS011;12957;49.434;8.684;2022-12-18T14:29:23;59.33;;;22.47;;
24897;SDS011;12957;49.434;8.684;2022-12-18T14:34:31;56.63;;;21.40;;
24897;SDS011;12957;49.434;8.684;2022-12-18T14:36:56;46.80;;;18.07;;
24897;SDS011;12957;49.434;8.684;2022-12-18T14:39:22;51.90;;;18.07;;
24897;SDS011;12957;49.434;8.684;2022-12-18T14:41:48;55.97;;;20.53;;
24897;SDS011;12957;49.434;8.684;2022-12-18T14:44:14;53.40;;;20.67;;
24897;SDS011;12957;49.434;8.684;2022-12-18T14:46:41;59.90;;;23.20;;
24897;SDS011;12957;49.434;8.684;2022-12-18T14:51:59;64.03;;;22.07;;
24897;SDS011;12957;49.434;8.684;2022-12-18T14:54:27;63.67;;;23.63;;
24897;SDS011;12957;49.434;8.684;2022-12-18T15:00:07;62.77;;;22.57;;
24897;SDS011;12957;49.434;8.684;2022-12-18T15:02:40;56.60;;;21.77;;
24897;SDS011;12957;49.434;8.684;2022-12-18T15:07:42;55.67;;;20.70;;
24897;SDS011;12957;49.434;8.684;2022-12-18T15:12:44;44.93;;;15.10;;
24897;SDS011;12957;49.434;8.684;2022-12-18T15:23:24;44.50;;;15.30;;
24897;SDS011;12957;49.434;8.684;2022-12-18T15:31:20;41.13;;;14.97;;
24897;SDS011;12957;49.434;8.684;2022-12-18T15:36:33;45.80;;;16.93;;
24897;SDS011;12957;49.434;8.684;2022-12-18T15:39:01;44.80;;;16.33;;
24897;SDS011;12957;49.434;8.684;2022-12-18T15:41:27;41.03;;;16.30;;
24897;SDS011;12957;49.434;8.684;2022-12-18T15:43:53;40.07;;;15.40;;
24897;SDS011;12957;49.434;8.684;2022-12-18T15:46:19;43.83;;;15.57;;
24897;SDS011;12957;49.434;8.684;2022-12-18T15:48:46;39.50;;;15.67;;
24897;SDS011;12957;49.434;8.684;2022-12-18T15:51:17;40.00;;;14.50;;
24897;SDS011;12957;49.434;8.684;2022-12-18T15:53:45;46.00;;;16.47;;
24897;SDS011;12957;49.434;8.684;2022-12-18T15:56:11;37.53;;;15.07;;
24897;SDS011;12957;49.434;8.684;2022-12-18T15:58:56;40.70;;;14.73;;
24897;SDS011;12957;49.434;8.684;2022-12-18T16:01:23;44.87;;;14.97;;
24897;SDS011;12957;49.434;8.684;2022-12-18T16:03:49;37.93;;;14.10;;
24897;SDS011;12957;49.434;8.684;2022-12-18T16:06:15;38.83;;;13.90;;
24897;SDS011;12957;49.434;8.684;2022-12-18T16:08:40;41.13;;;15.20;;
24897;SDS011;12957;49.434;8.684;2022-12-18T16:11:08;50.13;;;17.67;;
24897;SDS011;12957;49.434;8.684;2022-12-18T16:13:44;43.30;;;16.23;;
24897;SDS011;12957;49.434;8.684;2022-12-18T16:16:10;40.30;;;15.07;;
24897;SDS011;12957;49.434;8.684;2022-12-18T16:18:35;35.20;;;12.53;;
24897;SDS011;12957;49.434;8.684;2022-12-18T16:21:01;38.53;;;15.03;;
24897;SDS011;12957;49.434;8.684;2022-12-18T16:23:26;40.90;;;15.60;;
24897;SDS011;12957;49.434;8.684;2022-12-18T16:25:52;56.70;;;22.73;;
24897;SDS011;12957;49.434;8.684;2022-12-18T16:28:17;47.72;;;19.33;;
24897;SDS011;12957;49.434;8.684;2022-12-18T16:30:43;47.93;;;17.97;;
24897;SDS011;12957;49.434;8.684;2022-12-18T16:33:09;57.07;;;22.20;;
24897;SDS011;12957;49.434;8.684;2022-12-18T16:35:35;64.33;;;23.27;;